sensor_id;sensor_type;location;lat;lon;timestamp;temperature;humidity
20418;DHT22;10368;51.436;6.774;2022-08-14T00:02:03;24.50;70.70
20418;DHT22;10368;51.436;6.774;2022-08-14T00:04:31;24.40;70.90
20418;DHT22;10368;51.436;6.774;2022-08-14T00:07:10;24.50;71.20
20418;DHT22;10368;51.436;6.774;2022-08-14T00:09:41;24.40;71.40
20418;DHT22;10368;51.436;6.774;2022-08-14T00:12:28;24.40;71.60
20418;DHT22;10368;51.436;6.774;2022-08-14T00:15:04;24.30;71.00
20418;DHT22;10368;51.436;6.774;2022-08-14T00:17:33;24.20;72.70
20418;DHT22;10368;51.436;6.774;2022-08-14T00:20:13;24.30;72.00
20418;DHT22;10368;51.436;6.774;2022-08-14T00:22:49;24.40;71.80
20418;DHT22;10368;51.436;6.774;2022-08-14T00:25:24;24.30;72.00
20418;DHT22;10368;51.436;6.774;2022-08-14T00:28:10;24.10;72.80
20418;DHT22;10368;51.436;6.774;2022-08-14T00:30:43;24.20;72.80
20418;DHT22;10368;51.436;6.774;2022-08-14T00:33:10;24.10;72.80
20418;DHT22;10368;51.436;6.774;2022-08-14T00:35:41;24.20;72.60
20418;DHT22;10368;51.436;6.774;2022-08-14T00:38:28;24.20;72.80
20418;DHT22;10368;51.436;6.774;2022-08-14T00:40:57;24.10;73.70
20418;DHT22;10368;51.436;6.774;2022-08-14T00:43:24;24.00;73.10
20418;DHT22;10368;51.436;6.774;2022-08-14T00:46:01;24.00;73.60
20418;DHT22;10368;51.436;6.774;2022-08-14T00:48:32;24.00;73.80
20418;DHT22;10368;51.436;6.774;2022-08-14T00:51:05;24.10;73.20
20418;DHT22;10368;51.436;6.774;2022-08-14T00:53:34;24.00;74.10
20418;DHT22;10368;51.436;6.774;2022-08-14T00:56:03;24.00;74.00
20418;DHT22;10368;51.436;6.774;2022-08-14T00:58:35;24.00;74.10
20418;DHT22;10368;51.436;6.774;2022-08-14T01:01:10;23.90;74.20
20418;DHT22;10368;51.436;6.774;2022-08-14T01:03:38;23.90;74.00
20418;DHT22;10368;51.436;6.774;2022-08-14T01:06:10;24.00;74.00
20418;DHT22;10368;51.436;6.774;2022-08-14T01:08:38;24.00;74.50
20418;DHT22;10368;51.436;6.774;2022-08-14T01:11:25;23.80;74.50
20418;DHT22;10368;51.436;6.774;2022-08-14T01:14:02;23.90;74.80
20418;DHT22;10368;51.436;6.774;2022-08-14T01:16:49;23.90;74.70
20418;DHT22;10368;51.436;6.774;2022-08-14T01:19:21;23.70;75.70
20418;DHT22;10368;51.436;6.774;2022-08-14T01:22:08;23.60;75.80
20418;DHT22;10368;51.436;6.774;2022-08-14T01:24:39;23.70;75.80
20418;DHT22;10368;51.436;6.774;2022-08-14T01:27:22;23.60;75.90
20418;DHT22;10368;51.436;6.774;2022-08-14T01:29:52;23.60;76.40
20418;DHT22;10368;51.436;6.774;2022-08-14T01:32:31;23.50;76.70
20418;DHT22;10368;51.436;6.774;2022-08-14T01:35:09;23.30;77.40
20418;DHT22;10368;51.436;6.774;2022-08-14T01:37:56;23.30;77.50
20418;DHT22;10368;51.436;6.774;2022-08-14T01:40:24;23.30;77.60
20418;DHT22;10368;51.436;6.774;2022-08-14T01:42:59;23.20;78.50
20418;DHT22;10368;51.436;6.774;2022-08-14T01:45:28;23.30;77.80
20418;DHT22;10368;51.436;6.774;2022-08-14T01:48:06;23.30;77.80
20418;DHT22;10368;51.436;6.774;2022-08-14T01:50:40;23.20;78.00
20418;DHT22;10368;51.436;6.774;2022-08-14T01:53:07;23.10;78.50
20418;DHT22;10368;51.436;6.774;2022-08-14T01:55:36;23.20;78.50
20418;DHT22;10368;51.436;6.774;2022-08-14T01:58:07;23.10;78.90
20418;DHT22;10368;51.436;6.774;2022-08-14T02:00:45;23.10;79.00
20418;DHT22;10368;51.436;6.774;2022-08-14T02:03:14;23.10;79.00
20418;DHT22;10368;51.436;6.774;2022-08-14T02:05:42;23.10;79.30
20418;DHT22;10368;51.436;6.774;2022-08-14T02:08:09;23.00;79.30
20418;DHT22;10368;51.436;6.774;2022-08-14T02:10:40;23.10;79.60
20418;DHT22;10368;51.436;6.774;2022-08-14T02:13:14;23.00;79.70
20418;DHT22;10368;51.436;6.774;2022-08-14T02:15:43;23.00;79.80
20418;DHT22;10368;51.436;6.774;2022-08-14T02:18:14;23.00;79.90
20418;DHT22;10368;51.436;6.774;2022-08-14T02:20:41;23.00;80.20
20418;DHT22;10368;51.436;6.774;2022-08-14T02:23:08;23.00;79.90
20418;DHT22;10368;51.436;6.774;2022-08-14T02:25:37;23.10;79.90
20418;DHT22;10368;51.436;6.774;2022-08-14T02:28:05;23.00;80.10
20418;DHT22;10368;51.436;6.774;2022-08-14T02:30:52;23.00;80.20
20418;DHT22;10368;51.436;6.774;2022-08-14T02:33:20;22.90;80.40
20418;DHT22;10368;51.436;6.774;2022-08-14T02:35:48;22.90;80.60
20418;DHT22;10368;51.436;6.774;2022-08-14T02:38:23;22.80;80.60
20418;DHT22;10368;51.436;6.774;2022-08-14T02:41:00;22.80;81.30
20418;DHT22;10368;51.436;6.774;2022-08-14T02:43:27;22.90;81.40
20418;DHT22;10368;51.436;6.774;2022-08-14T02:46:04;22.70;81.80
20418;DHT22;10368;51.436;6.774;2022-08-14T02:48:36;22.80;81.80
20418;DHT22;10368;51.436;6.774;2022-08-14T02:51:25;22.80;81.90
20418;DHT22;10368;51.436;6.774;2022-08-14T02:53:56;22.80;81.60
20418;DHT22;10368;51.436;6.774;2022-08-14T02:56:24;22.60;82.60
20418;DHT22;10368;51.436;6.774;2022-08-14T02:59:16;22.70;82.60
20418;DHT22;10368;51.436;6.774;2022-08-14T03:01:44;22.60;82.50
20418;DHT22;10368;51.436;6.774;2022-08-14T03:04:20;22.60;82.80
20418;DHT22;10368;51.436;6.774;2022-08-14T03:06:48;22.60;83.10
20418;DHT22;10368;51.436;6.774;2022-08-14T03:09:28;22.70;87.30
20418;DHT22;10368;51.436;6.774;2022-08-14T03:12:15;22.70;88.80
20418;DHT22;10368;51.436;6.774;2022-08-14T03:15:02;22.60;89.80
20418;DHT22;10368;51.436;6.774;2022-08-14T03:20:25;22.60;82.80
20418;DHT22;10368;51.436;6.774;2022-08-14T03:22:57;22.60;83.20
20418;DHT22;10368;51.436;6.774;2022-08-14T03:25:28;22.60;83.70
20418;DHT22;10368;51.436;6.774;2022-08-14T03:28:07;22.50;83.70
20418;DHT22;10368;51.436;6.774;2022-08-14T03:30:55;22.60;83.50
20418;DHT22;10368;51.436;6.774;2022-08-14T03:33:25;22.60;83.60
20418;DHT22;10368;51.436;6.774;2022-08-14T03:36:04;22.50;84.00
20418;DHT22;10368;51.436;6.774;2022-08-14T03:38:58;22.50;84.20
20418;DHT22;10368;51.436;6.774;2022-08-14T03:41:49;22.40;85.40
20418;DHT22;10368;51.436;6.774;2022-08-14T03:44:17;22.30;84.60
20418;DHT22;10368;51.436;6.774;2022-08-14T03:47:04;22.30;84.90
20418;DHT22;10368;51.436;6.774;2022-08-14T03:49:32;22.40;85.20
20418;DHT22;10368;51.436;6.774;2022-08-14T03:51:59;22.30;85.30
20418;DHT22;10368;51.436;6.774;2022-08-14T03:54:43;22.30;85.50
20418;DHT22;10368;51.436;6.774;2022-08-14T03:57:18;22.30;85.40
20418;DHT22;10368;51.436;6.774;2022-08-14T03:59:48;22.20;85.70
20418;DHT22;10368;51.436;6.774;2022-08-14T04:02:15;22.20;85.60
20418;DHT22;10368;51.436;6.774;2022-08-14T04:05:11;22.00;86.90
20418;DHT22;10368;51.436;6.774;2022-08-14T04:07:42;21.90;87.50
20418;DHT22;10368;51.436;6.774;2022-08-14T04:10:26;21.90;88.10
20418;DHT22;10368;51.436;6.774;2022-08-14T04:13:00;22.00;87.30
20418;DHT22;10368;51.436;6.774;2022-08-14T04:15:30;22.00;87.40
20418;DHT22;10368;51.436;6.774;2022-08-14T04:18:17;22.00;87.30
20418;DHT22;10368;51.436;6.774;2022-08-14T04:20:44;21.90;88.20
20418;DHT22;10368;51.436;6.774;2022-08-14T04:23:21;21.90;88.10
20418;DHT22;10368;51.436;6.774;2022-08-14T04:25:54;22.00;87.70
20418;DHT22;10368;51.436;6.774;2022-08-14T04:28:22;21.90;88.40
20418;DHT22;10368;51.436;6.774;2022-08-14T04:31:10;22.00;88.40
20418;DHT22;10368;51.436;6.774;2022-08-14T04:33:37;21.90;88.80
20418;DHT22;10368;51.436;6.774;2022-08-14T04:36:04;21.90;89.10
20418;DHT22;10368;51.436;6.774;2022-08-14T04:38:35;21.90;89.00
20418;DHT22;10368;51.436;6.774;2022-08-14T04:41:22;21.90;89.50
20418;DHT22;10368;51.436;6.774;2022-08-14T04:44:08;21.90;89.40
20418;DHT22;10368;51.436;6.774;2022-08-14T04:46:52;21.80;89.60
20418;DHT22;10368;51.436;6.774;2022-08-14T04:49:38;21.80;90.10
20418;DHT22;10368;51.436;6.774;2022-08-14T04:52:23;21.80;90.10
20418;DHT22;10368;51.436;6.774;2022-08-14T04:54:51;21.80;90.10
20418;DHT22;10368;51.436;6.774;2022-08-14T04:57:20;21.80;90.00
20418;DHT22;10368;51.436;6.774;2022-08-14T04:59:48;21.90;89.80
20418;DHT22;10368;51.436;6.774;2022-08-14T05:02:16;21.80;90.00
20418;DHT22;10368;51.436;6.774;2022-08-14T05:04:44;21.80;90.20
20418;DHT22;10368;51.436;6.774;2022-08-14T05:07:24;21.70;90.50
20418;DHT22;10368;51.436;6.774;2022-08-14T05:10:11;21.70;90.60
20418;DHT22;10368;51.436;6.774;2022-08-14T05:12:47;21.80;90.70
20418;DHT22;10368;51.436;6.774;2022-08-14T05:15:39;21.70;90.70
20418;DHT22;10368;51.436;6.774;2022-08-14T05:18:11;21.70;90.80
20418;DHT22;10368;51.436;6.774;2022-08-14T05:21:00;21.70;90.80
20418;DHT22;10368;51.436;6.774;2022-08-14T05:23:48;21.80;90.80
20418;DHT22;10368;51.436;6.774;2022-08-14T05:26:15;21.80;90.80
20418;DHT22;10368;51.436;6.774;2022-08-14T05:28:44;21.90;90.80
20418;DHT22;10368;51.436;6.774;2022-08-14T05:31:15;21.80;91.10
20418;DHT22;10368;51.436;6.774;2022-08-14T05:33:49;21.80;91.00
20418;DHT22;10368;51.436;6.774;2022-08-14T05:36:22;21.90;91.00
20418;DHT22;10368;51.436;6.774;2022-08-14T05:38:52;21.80;91.20
20418;DHT22;10368;51.436;6.774;2022-08-14T05:41:20;21.80;91.30
20418;DHT22;10368;51.436;6.774;2022-08-14T05:43:53;21.90;91.20
20418;DHT22;10368;51.436;6.774;2022-08-14T05:46:20;21.90;91.10
20418;DHT22;10368;51.436;6.774;2022-08-14T05:48:55;21.90;91.20
20418;DHT22;10368;51.436;6.774;2022-08-14T05:51:24;21.90;91.20
20418;DHT22;10368;51.436;6.774;2022-08-14T05:53:51;21.90;91.50
20418;DHT22;10368;51.436;6.774;2022-08-14T05:56:35;21.80;91.40
20418;DHT22;10368;51.436;6.774;2022-08-14T05:59:03;22.00;91.50
20418;DHT22;10368;51.436;6.774;2022-08-14T06:01:31;22.00;91.40
20418;DHT22;10368;51.436;6.774;2022-08-14T06:03:59;22.00;91.60
20418;DHT22;10368;51.436;6.774;2022-08-14T06:06:25;22.10;91.50
20418;DHT22;10368;51.436;6.774;2022-08-14T06:08:52;22.10;91.90
20418;DHT22;10368;51.436;6.774;2022-08-14T06:11:19;22.10;91.60
20418;DHT22;10368;51.436;6.774;2022-08-14T06:13:56;22.10;91.90
20418;DHT22;10368;51.436;6.774;2022-08-14T06:16:24;22.00;92.10
20418;DHT22;10368;51.436;6.774;2022-08-14T06:18:51;22.10;92.30
20418;DHT22;10368;51.436;6.774;2022-08-14T06:21:20;22.10;92.30
20418;DHT22;10368;51.436;6.774;2022-08-14T06:23:48;22.20;92.30
20418;DHT22;10368;51.436;6.774;2022-08-14T06:26:15;22.10;92.30
20418;DHT22;10368;51.436;6.774;2022-08-14T06:28:48;22.30;92.20
20418;DHT22;10368;51.436;6.774;2022-08-14T06:31:18;22.40;92.30
20418;DHT22;10368;51.436;6.774;2022-08-14T06:33:46;22.20;92.50
20418;DHT22;10368;51.436;6.774;2022-08-14T06:36:33;22.20;92.40
20418;DHT22;10368;51.436;6.774;2022-08-14T06:39:02;22.20;92.80
20418;DHT22;10368;51.436;6.774;2022-08-14T06:41:35;22.30;92.60
20418;DHT22;10368;51.436;6.774;2022-08-14T06:44:22;22.40;92.30
20418;DHT22;10368;51.436;6.774;2022-08-14T06:46:59;22.30;92.40
20418;DHT22;10368;51.436;6.774;2022-08-14T06:49:30;22.50;92.30
20418;DHT22;10368;51.436;6.774;2022-08-14T06:52:10;22.50;92.10
20418;DHT22;10368;51.436;6.774;2022-08-14T06:54:42;22.60;92.10
20418;DHT22;10368;51.436;6.774;2022-08-14T06:57:10;22.70;92.00
20418;DHT22;10368;51.436;6.774;2022-08-14T06:59:38;22.80;91.80
20418;DHT22;10368;51.436;6.774;2022-08-14T07:02:06;22.80;91.80
20418;DHT22;10368;51.436;6.774;2022-08-14T07:04:54;22.80;91.90
20418;DHT22;10368;51.436;6.774;2022-08-14T07:07:47;22.90;91.90
20418;DHT22;10368;51.436;6.774;2022-08-14T07:10:14;23.00;91.70
20418;DHT22;10368;51.436;6.774;2022-08-14T07:12:44;23.00;91.80
20418;DHT22;10368;51.436;6.774;2022-08-14T07:15:30;23.10;91.50
20418;DHT22;10368;51.436;6.774;2022-08-14T07:18:06;23.20;91.50
20418;DHT22;10368;51.436;6.774;2022-08-14T07:20:35;23.20;91.30
20418;DHT22;10368;51.436;6.774;2022-08-14T07:23:04;23.30;91.30
20418;DHT22;10368;51.436;6.774;2022-08-14T07:25:37;23.30;91.20
20418;DHT22;10368;51.436;6.774;2022-08-14T07:30:47;23.50;90.90
20418;DHT22;10368;51.436;6.774;2022-08-14T07:33:19;23.60;90.80
20418;DHT22;10368;51.436;6.774;2022-08-14T07:35:51;23.70;90.80
20418;DHT22;10368;51.436;6.774;2022-08-14T07:38:25;23.70;90.80
20418;DHT22;10368;51.436;6.774;2022-08-14T07:41:04;23.70;90.80
20418;DHT22;10368;51.436;6.774;2022-08-14T07:43:41;23.80;90.60
20418;DHT22;10368;51.436;6.774;2022-08-14T07:46:09;23.90;90.50
20418;DHT22;10368;51.436;6.774;2022-08-14T07:48:41;24.00;90.30
20418;DHT22;10368;51.436;6.774;2022-08-14T07:51:09;24.10;90.20
20418;DHT22;10368;51.436;6.774;2022-08-14T07:53:38;24.10;90.30
20418;DHT22;10368;51.436;6.774;2022-08-14T07:56:07;24.20;90.30
20418;DHT22;10368;51.436;6.774;2022-08-14T07:58:56;24.20;90.00
20418;DHT22;10368;51.436;6.774;2022-08-14T08:01:24;24.30;90.10
20418;DHT22;10368;51.436;6.774;2022-08-14T08:03:56;24.40;89.80
20418;DHT22;10368;51.436;6.774;2022-08-14T08:06:27;24.50;87.90
20418;DHT22;10368;51.436;6.774;2022-08-14T08:08:58;24.60;89.30
20418;DHT22;10368;51.436;6.774;2022-08-14T08:11:33;24.70;88.60
20418;DHT22;10368;51.436;6.774;2022-08-14T08:14:05;24.80;88.40
20418;DHT22;10368;51.436;6.774;2022-08-14T08:16:44;24.90;88.80
20418;DHT22;10368;51.436;6.774;2022-08-14T08:19:17;25.00;87.90
20418;DHT22;10368;51.436;6.774;2022-08-14T08:21:45;25.00;87.30
20418;DHT22;10368;51.436;6.774;2022-08-14T08:24:13;25.10;87.60
20418;DHT22;10368;51.436;6.774;2022-08-14T08:26:47;25.10;87.30
20418;DHT22;10368;51.436;6.774;2022-08-14T08:29:20;25.30;87.40
20418;DHT22;10368;51.436;6.774;2022-08-14T08:31:53;25.40;86.00
20418;DHT22;10368;51.436;6.774;2022-08-14T08:34:20;25.40;86.10
20418;DHT22;10368;51.436;6.774;2022-08-14T08:36:50;25.60;85.50
20418;DHT22;10368;51.436;6.774;2022-08-14T08:39:18;25.50;85.90
20418;DHT22;10368;51.436;6.774;2022-08-14T08:41:48;25.70;85.80
20418;DHT22;10368;51.436;6.774;2022-08-14T08:44:20;25.80;85.30
20418;DHT22;10368;51.436;6.774;2022-08-14T08:46:59;25.80;85.00
20418;DHT22;10368;51.436;6.774;2022-08-14T08:49:39;25.80;84.80
20418;DHT22;10368;51.436;6.774;2022-08-14T08:52:26;26.00;90.80
20418;DHT22;10368;51.436;6.774;2022-08-14T08:54:58;26.20;83.70
20418;DHT22;10368;51.436;6.774;2022-08-14T08:57:32;26.20;83.60
20418;DHT22;10368;51.436;6.774;2022-08-14T09:00:00;26.20;84.10
20418;DHT22;10368;51.436;6.774;2022-08-14T09:02:27;26.20;83.30
20418;DHT22;10368;51.436;6.774;2022-08-14T09:05:01;26.40;83.60
20418;DHT22;10368;51.436;6.774;2022-08-14T09:07:30;26.50;83.50
20418;DHT22;10368;51.436;6.774;2022-08-14T09:09:57;26.40;82.60
20418;DHT22;10368;51.436;6.774;2022-08-14T09:12:30;26.60;81.90
20418;DHT22;10368;51.436;6.774;2022-08-14T09:15:04;26.50;81.80
20418;DHT22;10368;51.436;6.774;2022-08-14T09:17:39;26.50;82.70
20418;DHT22;10368;51.436;6.774;2022-08-14T09:20:07;26.60;81.40
20418;DHT22;10368;51.436;6.774;2022-08-14T09:22:39;26.80;81.20
20418;DHT22;10368;51.436;6.774;2022-08-14T09:25:15;26.90;81.40
20418;DHT22;10368;51.436;6.774;2022-08-14T09:27:42;27.00;81.10
20418;DHT22;10368;51.436;6.774;2022-08-14T09:30:10;27.20;80.00
20418;DHT22;10368;51.436;6.774;2022-08-14T09:36:12;27.40;77.60
20418;DHT22;10368;51.436;6.774;2022-08-14T09:41:41;27.50;94.40
20418;DHT22;10368;51.436;6.774;2022-08-14T09:47:16;27.70;86.90
20418;DHT22;10368;51.436;6.774;2022-08-14T09:49:44;27.80;90.50
20418;DHT22;10368;51.436;6.774;2022-08-14T09:52:19;28.00;79.90
20418;DHT22;10368;51.436;6.774;2022-08-14T09:55:00;28.00;75.60
20418;DHT22;10368;51.436;6.774;2022-08-14T09:57:29;28.00;75.10
20418;DHT22;10368;51.436;6.774;2022-08-14T09:59:57;28.10;75.30
20418;DHT22;10368;51.436;6.774;2022-08-14T10:02:55;28.10;72.60
20418;DHT22;10368;51.436;6.774;2022-08-14T10:05:33;28.30;71.40
20418;DHT22;10368;51.436;6.774;2022-08-14T10:08:16;28.50;71.30
20418;DHT22;10368;51.436;6.774;2022-08-14T10:10:51;28.50;71.00
20418;DHT22;10368;51.436;6.774;2022-08-14T10:13:28;28.50;70.30
20418;DHT22;10368;51.436;6.774;2022-08-14T10:16:15;28.60;69.60
20418;DHT22;10368;51.436;6.774;2022-08-14T10:19:07;28.90;69.70
20418;DHT22;10368;51.436;6.774;2022-08-14T10:21:40;28.80;68.70
20418;DHT22;10368;51.436;6.774;2022-08-14T10:24:31;28.60;68.10
20418;DHT22;10368;51.436;6.774;2022-08-14T10:27:03;28.80;68.50
20418;DHT22;10368;51.436;6.774;2022-08-14T10:29:35;28.90;67.50
20418;DHT22;10368;51.436;6.774;2022-08-14T10:32:07;29.10;67.40
20418;DHT22;10368;51.436;6.774;2022-08-14T10:34:45;29.30;68.20
20418;DHT22;10368;51.436;6.774;2022-08-14T10:37:18;29.60;67.00
20418;DHT22;10368;51.436;6.774;2022-08-14T10:40:01;29.10;66.20
20418;DHT22;10368;51.436;6.774;2022-08-14T10:42:38;29.40;65.80
20418;DHT22;10368;51.436;6.774;2022-08-14T10:45:28;29.40;66.80
20418;DHT22;10368;51.436;6.774;2022-08-14T10:48:12;29.80;75.80
20418;DHT22;10368;51.436;6.774;2022-08-14T10:50:59;29.70;69.50
20418;DHT22;10368;51.436;6.774;2022-08-14T10:53:29;29.40;64.80
20418;DHT22;10368;51.436;6.774;2022-08-14T10:55:59;30.10;64.00
20418;DHT22;10368;51.436;6.774;2022-08-14T10:58:31;30.10;64.00
20418;DHT22;10368;51.436;6.774;2022-08-14T11:01:00;29.90;64.20
20418;DHT22;10368;51.436;6.774;2022-08-14T11:03:41;29.50;63.70
20418;DHT22;10368;51.436;6.774;2022-08-14T11:06:22;30.10;64.70
20418;DHT22;10368;51.436;6.774;2022-08-14T11:08:53;30.20;63.50
20418;DHT22;10368;51.436;6.774;2022-08-14T11:11:22;30.30;63.70
20418;DHT22;10368;51.436;6.774;2022-08-14T11:14:03;30.30;64.20
20418;DHT22;10368;51.436;6.774;2022-08-14T11:19:06;30.40;62.50
20418;DHT22;10368;51.436;6.774;2022-08-14T11:21:38;30.50;63.30
20418;DHT22;10368;51.436;6.774;2022-08-14T11:24:13;30.30;63.40
20418;DHT22;10368;51.436;6.774;2022-08-14T11:27:02;30.10;64.00
20418;DHT22;10368;51.436;6.774;2022-08-14T11:29:31;30.00;63.50
20418;DHT22;10368;51.436;6.774;2022-08-14T11:32:02;30.00;64.20
20418;DHT22;10368;51.436;6.774;2022-08-14T11:34:30;30.40;63.50
20418;DHT22;10368;51.436;6.774;2022-08-14T11:37:11;30.50;62.80
20418;DHT22;10368;51.436;6.774;2022-08-14T11:39:52;30.50;63.10
20418;DHT22;10368;51.436;6.774;2022-08-14T11:42:24;30.30;62.20
20418;DHT22;10368;51.436;6.774;2022-08-14T11:45:12;30.00;61.80
20418;DHT22;10368;51.436;6.774;2022-08-14T11:47:49;29.90;64.10
20418;DHT22;10368;51.436;6.774;2022-08-14T11:50:36;30.40;62.40
20418;DHT22;10368;51.436;6.774;2022-08-14T11:53:05;30.60;62.30
20418;DHT22;10368;51.436;6.774;2022-08-14T11:55:36;30.70;62.30
20418;DHT22;10368;51.436;6.774;2022-08-14T11:58:09;30.90;62.30
20418;DHT22;10368;51.436;6.774;2022-08-14T12:00:52;30.80;62.10
20418;DHT22;10368;51.436;6.774;2022-08-14T12:03:19;30.80;62.10
20418;DHT22;10368;51.436;6.774;2022-08-14T12:06:15;30.70;61.40
20418;DHT22;10368;51.436;6.774;2022-08-14T12:08:55;31.10;60.30
20418;DHT22;10368;51.436;6.774;2022-08-14T12:11:39;31.00;60.50
20418;DHT22;10368;51.436;6.774;2022-08-14T12:14:13;30.80;60.50
20418;DHT22;10368;51.436;6.774;2022-08-14T12:17:07;30.90;60.40
20418;DHT22;10368;51.436;6.774;2022-08-14T12:19:49;31.10;59.80
20418;DHT22;10368;51.436;6.774;2022-08-14T12:22:39;30.80;61.60
20418;DHT22;10368;51.436;6.774;2022-08-14T12:25:20;31.00;63.40
20418;DHT22;10368;51.436;6.774;2022-08-14T12:27:53;31.60;60.60
20418;DHT22;10368;51.436;6.774;2022-08-14T12:30:38;31.00;60.90
20418;DHT22;10368;51.436;6.774;2022-08-14T12:33:28;31.10;62.30
20418;DHT22;10368;51.436;6.774;2022-08-14T12:36:03;31.40;61.30
20418;DHT22;10368;51.436;6.774;2022-08-14T12:38:38;31.30;61.20
20418;DHT22;10368;51.436;6.774;2022-08-14T12:41:15;31.30;60.20
20418;DHT22;10368;51.436;6.774;2022-08-14T12:44:04;31.40;60.40
20418;DHT22;10368;51.436;6.774;2022-08-14T12:46:34;31.40;60.20
20418;DHT22;10368;51.436;6.774;2022-08-14T12:49:11;31.80;60.00
20418;DHT22;10368;51.436;6.774;2022-08-14T12:51:43;31.40;60.90
20418;DHT22;10368;51.436;6.774;2022-08-14T12:54:20;31.50;61.30
20418;DHT22;10368;51.436;6.774;2022-08-14T12:57:38;31.40;61.60
20418;DHT22;10368;51.436;6.774;2022-08-14T13:00:16;31.50;60.40
20418;DHT22;10368;51.436;6.774;2022-08-14T13:02:51;31.70;61.00
20418;DHT22;10368;51.436;6.774;2022-08-14T13:05:32;31.70;60.80
20418;DHT22;10368;51.436;6.774;2022-08-14T13:08:04;31.50;60.30
20418;DHT22;10368;51.436;6.774;2022-08-14T13:10:53;31.50;60.20
20418;DHT22;10368;51.436;6.774;2022-08-14T13:13:28;31.60;59.90
20418;DHT22;10368;51.436;6.774;2022-08-14T13:16:01;31.80;59.00
20418;DHT22;10368;51.436;6.774;2022-08-14T13:18:46;31.60;59.30
20418;DHT22;10368;51.436;6.774;2022-08-14T13:21:24;31.80;59.20
20418;DHT22;10368;51.436;6.774;2022-08-14T13:23:52;31.80;59.80
20418;DHT22;10368;51.436;6.774;2022-08-14T13:26:22;31.60;61.80
20418;DHT22;10368;51.436;6.774;2022-08-14T13:28:54;31.70;60.20
20418;DHT22;10368;51.436;6.774;2022-08-14T13:31:29;31.60;58.50
20418;DHT22;10368;51.436;6.774;2022-08-14T13:34:00;31.70;58.80
20418;DHT22;10368;51.436;6.774;2022-08-14T13:36:30;31.60;59.40
20418;DHT22;10368;51.436;6.774;2022-08-14T13:39:19;31.90;59.20
20418;DHT22;10368;51.436;6.774;2022-08-14T13:41:47;32.00;59.20
20418;DHT22;10368;51.436;6.774;2022-08-14T13:44:25;32.10;59.90
20418;DHT22;10368;51.436;6.774;2022-08-14T13:46:52;32.20;58.50
20418;DHT22;10368;51.436;6.774;2022-08-14T13:49:19;32.10;57.50
20418;DHT22;10368;51.436;6.774;2022-08-14T13:51:51;31.80;58.00
20418;DHT22;10368;51.436;6.774;2022-08-14T13:54:27;32.00;60.00
20418;DHT22;10368;51.436;6.774;2022-08-14T13:56:59;32.10;65.70
20418;DHT22;10368;51.436;6.774;2022-08-14T14:02:06;32.40;57.30
20418;DHT22;10368;51.436;6.774;2022-08-14T14:04:38;32.20;58.60
20418;DHT22;10368;51.436;6.774;2022-08-14T14:07:11;32.50;56.30
20418;DHT22;10368;51.436;6.774;2022-08-14T14:09:45;32.50;57.00
20418;DHT22;10368;51.436;6.774;2022-08-14T14:12:19;32.50;56.50
20418;DHT22;10368;51.436;6.774;2022-08-14T14:15:08;32.30;55.70
20418;DHT22;10368;51.436;6.774;2022-08-14T14:17:38;32.30;59.20
20418;DHT22;10368;51.436;6.774;2022-08-14T14:20:07;32.50;55.60
20418;DHT22;10368;51.436;6.774;2022-08-14T14:22:58;32.40;56.60
20418;DHT22;10368;51.436;6.774;2022-08-14T14:25:29;32.10;57.20
20418;DHT22;10368;51.436;6.774;2022-08-14T14:28:15;31.50;57.00
20418;DHT22;10368;51.436;6.774;2022-08-14T14:30:52;31.30;58.40
20418;DHT22;10368;51.436;6.774;2022-08-14T14:33:23;31.30;58.50
20418;DHT22;10368;51.436;6.774;2022-08-14T14:36:10;31.30;59.30
20418;DHT22;10368;51.436;6.774;2022-08-14T14:38:40;31.00;58.90
20418;DHT22;10368;51.436;6.774;2022-08-14T14:41:11;31.00;59.40
20418;DHT22;10368;51.436;6.774;2022-08-14T14:43:40;31.00;60.70
20418;DHT22;10368;51.436;6.774;2022-08-14T14:46:11;31.30;58.30
20418;DHT22;10368;51.436;6.774;2022-08-14T14:48:43;31.30;60.30
20418;DHT22;10368;51.436;6.774;2022-08-14T14:51:20;31.30;59.50
20418;DHT22;10368;51.436;6.774;2022-08-14T14:53:47;31.10;58.90
20418;DHT22;10368;51.436;6.774;2022-08-14T14:56:15;31.00;59.80
20418;DHT22;10368;51.436;6.774;2022-08-14T14:59:02;31.00;59.70
20418;DHT22;10368;51.436;6.774;2022-08-14T15:01:32;30.90;60.40
20418;DHT22;10368;51.436;6.774;2022-08-14T15:04:02;30.70;59.00
20418;DHT22;10368;51.436;6.774;2022-08-14T15:06:47;30.60;60.90
20418;DHT22;10368;51.436;6.774;2022-08-14T15:09:19;30.60;59.50
20418;DHT22;10368;51.436;6.774;2022-08-14T15:11:49;30.60;59.10
20418;DHT22;10368;51.436;6.774;2022-08-14T15:14:16;30.60;59.40
20418;DHT22;10368;51.436;6.774;2022-08-14T15:17:03;30.70;60.00
20418;DHT22;10368;51.436;6.774;2022-08-14T15:19:32;31.00;60.10
20418;DHT22;10368;51.436;6.774;2022-08-14T15:21:59;31.20;59.20
20418;DHT22;10368;51.436;6.774;2022-08-14T15:24:26;31.40;57.60
20418;DHT22;10368;51.436;6.774;2022-08-14T15:26:53;31.50;58.10
20418;DHT22;10368;51.436;6.774;2022-08-14T15:29:24;31.50;57.10
20418;DHT22;10368;51.436;6.774;2022-08-14T15:31:52;31.10;57.80
20418;DHT22;10368;51.436;6.774;2022-08-14T15:34:20;31.00;59.10
20418;DHT22;10368;51.436;6.774;2022-08-14T15:37:07;30.90;60.40
20418;DHT22;10368;51.436;6.774;2022-08-14T15:39:36;31.30;58.80
20418;DHT22;10368;51.436;6.774;2022-08-14T15:42:07;31.60;57.80
20418;DHT22;10368;51.436;6.774;2022-08-14T15:44:46;31.40;59.20
20418;DHT22;10368;51.436;6.774;2022-08-14T15:47:28;31.50;59.90
20418;DHT22;10368;51.436;6.774;2022-08-14T15:50:00;31.70;57.60
20418;DHT22;10368;51.436;6.774;2022-08-14T15:52:32;31.80;58.70
20418;DHT22;10368;51.436;6.774;2022-08-14T15:55:06;31.80;57.80
20418;DHT22;10368;51.436;6.774;2022-08-14T15:57:35;31.60;58.00
20418;DHT22;10368;51.436;6.774;2022-08-14T16:00:07;31.40;58.40
20418;DHT22;10368;51.436;6.774;2022-08-14T16:03:10;31.70;58.10
20418;DHT22;10368;51.436;6.774;2022-08-14T16:05:42;31.80;57.80
20418;DHT22;10368;51.436;6.774;2022-08-14T16:08:12;31.80;57.60
20418;DHT22;10368;51.436;6.774;2022-08-14T16:10:56;31.50;58.30
20418;DHT22;10368;51.436;6.774;2022-08-14T16:13:23;31.40;58.50
20418;DHT22;10368;51.436;6.774;2022-08-14T16:16:21;31.30;58.20
20418;DHT22;10368;51.436;6.774;2022-08-14T16:19:09;31.30;59.00
20418;DHT22;10368;51.436;6.774;2022-08-14T16:21:40;31.20;58.40
20418;DHT22;10368;51.436;6.774;2022-08-14T16:24:29;31.30;58.80
20418;DHT22;10368;51.436;6.774;2022-08-14T16:26:59;31.60;57.20
20418;DHT22;10368;51.436;6.774;2022-08-14T16:29:32;31.60;58.80
20418;DHT22;10368;51.436;6.774;2022-08-14T16:32:00;31.60;57.10
20418;DHT22;10368;51.436;6.774;2022-08-14T16:34:48;31.30;56.60
20418;DHT22;10368;51.436;6.774;2022-08-14T16:37:22;31.50;59.50
20418;DHT22;10368;51.436;6.774;2022-08-14T16:40:00;31.50;59.20